createdAt,value
2018-11-28T00:00:02.030Z,-0.17
2018-11-28T00:02:35.039Z,-0.19
2018-11-28T00:05:10.003Z,-1.12
2018-11-28T00:07:55.623Z,-0.20
2018-11-28T00:10:32.592Z,-0.21
2018-11-28T00:13:11.078Z,-0.20
2018-11-28T00:15:42.019Z,-0.13
2018-11-28T00:18:13.955Z,-0.17
2018-11-28T00:20:51.088Z,-0.20
2018-11-28T00:23:22.077Z,-0.24
2018-11-28T00:25:58.704Z,-0.13
2018-11-28T00:28:25.313Z,-0.15
2018-11-28T00:31:01.027Z,-0.17
2018-11-28T00:33:34.164Z,-0.19
2018-11-28T00:36:07.167Z,-0.16
2018-11-28T00:38:38.142Z,-0.19
2018-11-28T00:41:10.202Z,-0.19
2018-11-28T00:43:43.822Z,-0.17
2018-11-28T00:46:15.483Z,-0.20
2018-11-28T00:48:46.424Z,-0.25
2018-11-28T00:51:18.472Z,-0.21
2018-11-28T00:53:53.911Z,-0.26
2018-11-28T00:56:25.355Z,-0.22
2018-11-28T00:58:57.125Z,-0.26
2018-11-28T01:01:28.160Z,-0.32
2018-11-28T01:04:00.386Z,-0.33
2018-11-28T01:06:31.178Z,-0.35
2018-11-28T01:09:04.263Z,-0.37
2018-11-28T01:11:36.084Z,-0.37
2018-11-28T01:14:07.392Z,-0.42
2018-11-28T01:16:38.091Z,-0.42
2018-11-28T01:19:08.670Z,-0.41
2018-11-28T01:21:39.471Z,-0.33
2018-11-28T01:24:10.239Z,-0.35
2018-11-28T01:26:41.092Z,-0.35
2018-11-28T01:29:11.664Z,-0.31
2018-11-28T01:31:45.047Z,-0.31
2018-11-28T01:34:18.692Z,-0.29
2018-11-28T01:36:54.000Z,-0.27
2018-11-28T01:39:25.405Z,-0.25
2018-11-28T01:41:56.282Z,-0.20
2018-11-28T01:44:36.422Z,-0.26
2018-11-28T01:47:09.470Z,-0.22
2018-11-28T01:49:40.559Z,-0.21
2018-11-28T01:52:13.585Z,-0.23
2018-11-28T01:54:44.732Z,-0.25
2018-11-28T01:57:17.582Z,-0.20
2018-11-28T01:59:48.406Z,-0.21
2018-11-28T02:02:19.444Z,-0.16
2018-11-28T02:04:52.547Z,-0.15
2018-11-28T02:07:24.423Z,-0.11
2018-11-28T02:09:56.668Z,-0.11
2018-11-28T02:12:27.559Z,-0.07
2018-11-28T02:14:58.413Z,-0.04
2018-11-28T02:17:31.786Z,-0.02
2018-11-28T02:20:08.688Z,0.02
2018-11-28T02:22:39.278Z,0.03
2018-11-28T02:25:12.010Z,-1.22
2018-11-28T02:27:55.395Z,0.06
2018-11-28T02:30:26.068Z,0.07
2018-11-28T02:32:57.047Z,0.05
2018-11-28T02:35:28.919Z,0.06
2018-11-28T02:38:01.613Z,0.11
2018-11-28T02:40:32.513Z,0.10
2018-11-28T02:43:08.365Z,0.07
2018-11-28T02:45:40.019Z,0.09
2018-11-28T02:48:14.240Z,0.10
2018-11-28T02:50:55.696Z,0.10
2018-11-28T02:53:28.787Z,0.07
2018-11-28T02:55:59.687Z,0.12
2018-11-28T02:58:31.702Z,0.13
2018-11-28T03:01:03.863Z,0.14
2018-11-28T03:03:34.784Z,0.16
2018-11-28T03:06:06.205Z,0.17
2018-11-28T03:08:38.941Z,0.20
2018-11-28T03:11:12.531Z,0.21
2018-11-28T03:13:45.660Z,0.22
2018-11-28T03:16:19.637Z,0.20
2018-11-28T03:18:50.307Z,0.22
2018-11-28T03:21:22.965Z,0.21
2018-11-28T03:23:54.997Z,0.20
2018-11-28T03:26:27.994Z,0.17
2018-11-28T03:28:59.092Z,0.17
2018-11-28T03:31:30.159Z,0.18
2018-11-28T03:34:01.640Z,0.17
2018-11-28T03:36:34.646Z,0.20
2018-11-28T03:39:09.578Z,0.20
2018-11-28T03:41:45.015Z,0.19
2018-11-28T03:44:15.836Z,0.17
2018-11-28T03:46:46.094Z,0.25
2018-11-28T03:49:17.031Z,0.22
2018-11-28T03:51:47.859Z,0.18
2018-11-28T03:54:18.773Z,0.18
2018-11-28T03:56:49.396Z,0.20
2018-11-28T03:59:23.806Z,0.22
2018-11-28T04:01:59.672Z,0.21
2018-11-28T04:04:34.877Z,0.20
2018-11-28T04:07:05.942Z,0.20
2018-11-28T04:09:37.090Z,0.20
2018-11-28T04:12:13.658Z,0.21
2018-11-28T04:14:53.790Z,0.22
2018-11-28T04:17:27.012Z,0.21
2018-11-28T04:20:01.032Z,0.22
2018-11-28T04:22:35.125Z,0.24
2018-11-28T04:25:09.862Z,0.20
2018-11-28T04:27:41.230Z,0.20
2018-11-28T04:30:17.015Z,0.18
2018-11-28T04:32:49.723Z,0.17
2018-11-28T04:38:16.783Z,0.11
2018-11-28T04:40:48.764Z,0.16
2018-11-28T04:43:19.589Z,0.15
2018-11-28T04:45:52.287Z,0.10
2018-11-28T04:48:25.351Z,0.09
2018-11-28T04:50:58.402Z,0.11
2018-11-28T04:53:32.009Z,0.08
2018-11-28T04:56:08.025Z,0.02
2018-11-28T04:58:50.163Z,0.01
2018-11-28T05:01:24.190Z,0.07
2018-11-28T05:03:55.146Z,0.00
2018-11-28T05:07:35.963Z,-0.06
2018-11-28T05:10:41.124Z,-0.05
2018-11-28T05:13:13.235Z,-0.06
2018-11-28T05:15:46.670Z,-0.08
2018-11-28T05:18:22.100Z,-0.07
2018-11-28T05:20:55.374Z,-0.05
2018-11-28T05:23:26.563Z,-0.07
2018-11-28T05:25:58.436Z,-0.07
2018-11-28T05:28:30.386Z,-0.09
2018-11-28T05:31:01.947Z,-0.09
2018-11-28T05:33:32.788Z,-0.13
2018-11-28T05:36:05.668Z,-0.12
2018-11-28T05:38:39.371Z,-0.12
2018-11-28T05:41:10.515Z,-0.07
2018-11-28T05:43:43.054Z,-0.07
2018-11-28T05:46:14.662Z,-0.09
2018-11-28T05:48:45.320Z,-0.07
2018-11-28T05:51:15.979Z,-0.11
2018-11-28T05:53:47.034Z,-0.07
2018-11-28T05:56:19.169Z,-0.09
2018-11-28T05:58:51.299Z,-0.05
2018-11-28T06:01:21.865Z,-0.03
2018-11-28T06:03:52.664Z,-0.09
2018-11-28T06:06:23.676Z,-0.06
2018-11-28T06:08:54.182Z,-0.05
2018-11-28T06:11:25.312Z,-0.02
2018-11-28T06:13:56.016Z,-0.04
2018-11-28T06:16:28.530Z,0.01
2018-11-28T06:18:59.833Z,-0.02
2018-11-28T06:21:34.114Z,-0.01
2018-11-28T06:24:09.754Z,-0.04
2018-11-28T06:26:40.537Z,-0.05
2018-11-28T06:29:13.944Z,-0.06
2018-11-28T06:31:44.627Z,0.01
2018-11-28T06:34:15.151Z,-0.02
2018-11-28T06:36:45.406Z,-0.03
2018-11-28T06:39:16.207Z,-0.08
2018-11-28T06:41:46.756Z,-0.05
2018-11-28T06:44:17.562Z,-0.07
2018-11-28T06:46:48.207Z,-0.08
2018-11-28T06:49:18.740Z,0.02
2018-11-28T06:51:49.502Z,-0.03
2018-11-28T06:54:20.119Z,-0.02
2018-11-28T06:56:51.648Z,0.05
2018-11-28T06:59:22.462Z,0.00
2018-11-28T07:02:00.280Z,0.08
2018-11-28T07:04:38.589Z,0.11
2018-11-28T07:07:09.401Z,0.09
2018-11-28T07:09:40.230Z,0.13
2018-11-28T07:12:11.069Z,0.14
2018-11-28T07:14:41.747Z,0.14
2018-11-28T07:17:13.080Z,0.20
2018-11-28T07:19:45.902Z,0.24
2018-11-28T07:22:16.739Z,0.26
2018-11-28T07:24:49.911Z,0.28
2018-11-28T07:27:24.083Z,0.30
2018-11-28T07:29:54.940Z,0.31
2018-11-28T07:32:25.800Z,0.35
2018-11-28T07:34:58.951Z,0.38
2018-11-28T07:37:32.053Z,0.41
2018-11-28T07:40:03.221Z,0.60
2018-11-28T07:42:33.850Z,0.50
2018-11-28T07:45:05.197Z,0.50
2018-11-28T07:47:38.078Z,0.53
2018-11-28T07:50:13.147Z,0.55
2018-11-28T07:52:45.092Z,0.66
2018-11-28T07:55:19.805Z,0.65
2018-11-28T07:57:53.273Z,0.63
2018-11-28T08:00:25.871Z,0.59
2018-11-28T08:02:59.153Z,0.63
2018-11-28T08:05:39.543Z,0.68
2018-11-28T08:08:11.391Z,0.63
2018-11-28T08:10:41.700Z,0.72
2018-11-28T08:13:13.025Z,0.68
2018-11-28T08:15:43.409Z,0.74
2018-11-28T08:18:13.932Z,0.63
2018-11-28T08:20:44.785Z,0.69
2018-11-28T08:23:15.554Z,0.73
2018-11-28T08:25:46.156Z,0.69
2018-11-28T08:28:19.515Z,0.71
2018-11-28T08:30:50.822Z,0.78
2018-11-28T08:33:25.682Z,0.79
2018-11-28T08:35:56.956Z,0.85
2018-11-28T08:38:29.195Z,0.89
2018-11-28T08:41:03.567Z,1.00
2018-11-28T08:43:35.035Z,1.03
2018-11-28T08:46:05.828Z,1.09
2018-11-28T08:48:36.360Z,1.16
2018-11-28T08:51:06.805Z,1.15
2018-11-28T08:53:37.710Z,1.28
2018-11-28T08:56:08.303Z,1.29
2018-11-28T08:58:38.807Z,1.37
2018-11-28T09:01:09.311Z,1.36
2018-11-28T09:03:40.021Z,1.40
2018-11-28T09:06:10.997Z,1.42
2018-11-28T09:08:41.542Z,1.49
2018-11-28T09:11:11.869Z,1.67
2018-11-28T09:13:42.741Z,1.62
2018-11-28T09:16:13.266Z,1.62
2018-11-28T09:18:44.477Z,1.83
2018-11-28T09:21:15.456Z,1.77
2018-11-28T09:23:46.769Z,1.70
2018-11-28T09:26:19.246Z,1.79
2018-11-28T09:28:50.691Z,1.70
2018-11-28T09:31:26.451Z,1.66
2018-11-28T09:33:59.512Z,1.80
2018-11-28T09:36:32.276Z,1.86
2018-11-28T09:39:06.159Z,1.84
2018-11-28T09:41:38.250Z,1.75
2018-11-28T09:44:10.458Z,1.85
2018-11-28T09:46:46.515Z,1.82
2018-11-28T09:49:19.499Z,1.99
2018-11-28T09:51:50.612Z,2.09
2018-11-28T09:54:22.667Z,1.85
2018-11-28T09:56:54.298Z,2.02
2018-11-28T09:59:28.378Z,2.50
2018-11-28T10:02:03.511Z,3.38
2018-11-28T10:04:39.415Z,4.12
2018-11-28T10:07:12.693Z,4.40
2018-11-28T10:09:43.365Z,4.51
2018-11-28T10:12:14.339Z,5.14
2018-11-28T10:14:45.189Z,5.42
2018-11-28T10:17:16.079Z,5.30
2018-11-28T10:19:46.706Z,4.57
2018-11-28T10:22:17.445Z,4.73
2018-11-28T10:24:48.261Z,4.93
2018-11-28T10:27:25.854Z,5.00
2018-11-28T10:29:56.873Z,4.65
2018-11-28T10:32:29.675Z,4.46
2018-11-28T10:35:02.422Z,4.27
2018-11-28T10:37:34.641Z,4.01
2018-11-28T10:42:59.618Z,3.18
2018-11-28T10:48:39.110Z,2.81
2018-11-28T10:51:10.084Z,2.95
2018-11-28T10:53:40.883Z,2.90
2018-11-28T10:56:11.414Z,3.08
2018-11-28T10:58:42.288Z,3.26
2018-11-28T11:01:18.447Z,2.91
2018-11-28T11:04:30.943Z,3.16
2018-11-28T11:07:08.409Z,3.33
2018-11-28T11:09:47.862Z,3.46
2018-11-28T11:12:24.352Z,3.64
2018-11-28T11:14:55.753Z,3.59
2018-11-28T11:17:32.306Z,3.55
2018-11-28T11:20:02.988Z,3.59
2018-11-28T11:22:33.693Z,3.61
2018-11-28T11:25:05.070Z,3.34
2018-11-28T11:27:35.671Z,3.59
2018-11-28T11:30:09.527Z,3.63
2018-11-28T11:32:40.097Z,3.36
2018-11-28T11:35:12.640Z,3.45
2018-11-28T11:38:01.220Z,3.69
2018-11-28T11:40:33.080Z,3.99
2018-11-28T11:43:08.739Z,3.90
2018-11-28T11:45:39.882Z,4.16
2018-11-28T11:48:11.259Z,4.04
2018-11-28T11:50:41.798Z,4.02
2018-11-28T11:53:12.625Z,3.89
2018-11-28T11:55:42.979Z,3.93
2018-11-28T11:58:13.902Z,4.22
2018-11-28T12:00:46.444Z,4.42
2018-11-28T12:03:18.329Z,4.18
2018-11-28T12:05:56.708Z,4.31
2018-11-28T12:08:29.972Z,4.50
2018-11-28T12:11:02.207Z,5.08
2018-11-28T12:13:33.118Z,5.06
2018-11-28T12:16:04.069Z,5.13
2018-11-28T12:18:34.799Z,5.11
2018-11-28T12:21:07.448Z,4.68
2018-11-28T12:23:39.217Z,4.47
2018-11-28T12:26:13.119Z,4.62
2018-11-28T12:28:45.970Z,4.67
2018-11-28T12:31:19.620Z,4.48
2018-11-28T12:33:51.106Z,4.31
2018-11-28T12:36:23.537Z,4.23
2018-11-28T12:38:55.325Z,4.35
2018-11-28T12:41:26.899Z,3.98
2018-11-28T12:43:57.466Z,4.39
2018-11-28T12:46:31.788Z,3.99
2018-11-28T12:49:07.027Z,4.38
2018-11-28T12:51:38.205Z,4.74
2018-11-28T12:54:14.480Z,4.48
2018-11-28T12:56:45.236Z,3.92
2018-11-28T12:59:15.587Z,3.83
2018-11-28T13:01:46.521Z,4.03
2018-11-28T13:04:22.165Z,4.12
2018-11-28T13:06:54.022Z,3.78
2018-11-28T13:09:26.488Z,4.13
2018-11-28T13:12:00.077Z,4.57
2018-11-28T13:14:34.395Z,4.60
2018-11-28T13:17:04.818Z,4.54
2018-11-28T13:19:35.728Z,4.50
2018-11-28T13:22:07.188Z,4.09
2018-11-28T13:24:39.544Z,4.28
2018-11-28T13:27:11.311Z,4.25
2018-11-28T13:29:44.475Z,4.30
2018-11-28T13:32:17.898Z,4.10
2018-11-28T13:34:48.923Z,3.99
2018-11-28T13:37:20.765Z,4.01
2018-11-28T13:39:52.592Z,4.17
2018-11-28T13:42:23.573Z,4.14
2018-11-28T13:44:56.828Z,4.18
2018-11-28T13:47:29.685Z,4.12
2018-11-28T13:50:00.381Z,4.03
2018-11-28T13:52:31.423Z,3.91
2018-11-28T13:55:37.812Z,3.91
2018-11-28T13:57:37.807Z,3.76
2018-11-28T14:00:11.273Z,3.70
2018-11-28T14:02:42.140Z,3.81
2018-11-28T14:05:27.993Z,3.76
2018-11-28T14:08:00.577Z,3.76
2018-11-28T14:10:31.231Z,3.70
2018-11-28T14:13:01.797Z,3.59
2018-11-28T14:15:42.541Z,3.64
2018-11-28T14:18:19.074Z,3.68
2018-11-28T14:20:51.144Z,3.61
2018-11-28T14:23:25.588Z,3.53
2018-11-28T14:25:59.698Z,3.52
2018-11-28T14:28:35.621Z,3.48
2018-11-28T14:37:22.841Z,3.49
2018-11-28T14:39:55.751Z,3.51
2018-11-28T14:42:26.773Z,3.43
2018-11-28T14:44:57.293Z,3.35
2018-11-28T14:47:27.842Z,3.29
2018-11-28T14:49:58.365Z,3.19
2018-11-28T14:52:28.951Z,2.95
2018-11-28T14:55:00.070Z,3.08
2018-11-28T14:57:31.187Z,3.07
2018-11-28T15:00:03.457Z,3.07
2018-11-28T15:02:35.164Z,3.01
2018-11-28T15:05:11.203Z,3.02
2018-11-28T15:07:42.035Z,2.97
2018-11-28T15:10:15.076Z,2.86
2018-11-28T15:12:46.800Z,2.87
2018-11-28T15:15:34.855Z,2.89
2018-11-28T15:18:05.934Z,2.78
2018-11-28T15:20:38.988Z,2.83
2018-11-28T15:23:12.770Z,2.75
2018-11-28T15:25:46.058Z,2.85
2018-11-28T15:28:19.022Z,2.81
2018-11-28T15:30:50.202Z,2.74
2018-11-28T15:33:23.259Z,2.65
2018-11-28T15:35:54.114Z,2.65
2018-11-28T15:39:27.876Z,2.62
2018-11-28T15:42:01.827Z,2.54
2018-11-28T15:44:39.135Z,2.48
2018-11-28T15:47:12.481Z,2.43
2018-11-28T15:49:45.445Z,2.43
2018-11-28T15:52:16.127Z,2.34
2018-11-28T15:54:47.563Z,2.40
2018-11-28T15:57:20.038Z,2.33
2018-11-28T15:59:51.174Z,2.22
2018-11-28T16:02:24.602Z,2.33
2018-11-28T16:04:56.186Z,2.29
2018-11-28T16:07:29.181Z,2.38
2018-11-28T16:10:05.352Z,2.36
2018-11-28T16:12:43.890Z,2.28
2018-11-28T16:15:26.529Z,2.29
2018-11-28T16:17:57.134Z,2.29
2018-11-28T16:20:30.665Z,2.39
2018-11-28T16:23:04.185Z,2.38
2018-11-28T16:25:40.407Z,2.30
2018-11-28T16:28:12.469Z,2.34
2018-11-28T16:30:46.462Z,2.36
2018-11-28T16:33:18.447Z,2.31
2018-11-28T16:35:54.914Z,2.30
2018-11-28T16:38:25.995Z,2.32
2018-11-28T16:40:59.412Z,2.28
2018-11-28T16:43:32.510Z,2.13
2018-11-28T16:46:04.404Z,2.39
2018-11-28T16:48:38.414Z,2.30
2018-11-28T16:51:09.161Z,2.27
2018-11-28T16:53:40.788Z,2.35
2018-11-28T16:56:13.565Z,2.29
2018-11-28T16:58:46.363Z,2.28
2018-11-28T17:01:17.366Z,2.21
2018-11-28T17:03:52.969Z,2.18
2018-11-28T17:06:26.625Z,2.10
2018-11-28T17:08:58.710Z,2.04
2018-11-28T17:11:30.551Z,2.20
2018-11-28T17:14:10.953Z,2.08
2018-11-28T17:16:44.972Z,2.06
2018-11-28T17:19:16.545Z,2.08
2018-11-28T17:21:48.917Z,1.95
2018-11-28T17:24:22.021Z,1.94
2018-11-28T17:26:57.729Z,2.00
2018-11-28T17:29:28.671Z,1.89
2018-11-28T17:31:59.399Z,2.03
2018-11-28T17:34:30.699Z,1.96
2018-11-28T17:37:03.742Z,1.80
2018-11-28T17:39:37.443Z,1.96
2018-11-28T17:42:08.708Z,1.67
2018-11-28T17:44:41.698Z,1.67
2018-11-28T17:47:12.303Z,1.65
2018-11-28T17:49:54.771Z,1.50
2018-11-28T17:52:27.091Z,1.52
2018-11-28T17:54:58.618Z,1.55
2018-11-28T17:57:29.466Z,1.65
2018-11-28T18:00:00.053Z,1.47
2018-11-28T18:02:30.706Z,1.45
2018-11-28T18:05:04.005Z,1.57
2018-11-28T18:07:39.207Z,1.44
2018-11-28T18:10:27.332Z,1.39
2018-11-28T18:13:12.661Z,1.58
2018-11-28T18:15:45.814Z,1.60
2018-11-28T18:18:21.309Z,1.55
2018-11-28T18:20:57.086Z,1.43
2018-11-28T18:23:28.720Z,1.64
2018-11-28T18:26:00.494Z,1.57
2018-11-28T18:28:31.197Z,1.61
2018-11-28T18:31:02.359Z,1.46
2018-11-28T18:33:35.036Z,1.34
2018-11-28T18:36:05.850Z,1.30
2018-11-28T18:38:39.968Z,1.22
2018-11-28T18:41:13.100Z,1.06
2018-11-28T18:43:44.109Z,0.99
2018-11-28T18:46:15.073Z,1.06
2018-11-28T18:48:49.044Z,1.05
2018-11-28T18:51:19.990Z,1.07
2018-11-28T18:53:52.217Z,1.10
2018-11-28T18:56:24.072Z,1.20
2018-11-28T18:58:57.007Z,1.03
2018-11-28T19:01:30.053Z,1.14
2018-11-28T19:04:01.163Z,1.18
2018-11-28T19:06:36.498Z,1.18
2018-11-28T19:09:10.728Z,1.19
2018-11-28T19:11:46.756Z,1.14
2018-11-28T19:14:17.921Z,1.12
2018-11-28T19:16:57.098Z,1.12
2018-11-28T19:19:30.347Z,1.19
2018-11-28T19:22:04.298Z,1.18
2018-11-28T19:24:35.399Z,1.14
2018-11-28T19:27:09.853Z,1.38
2018-11-28T19:29:42.209Z,1.60
2018-11-28T19:32:13.479Z,1.49
2018-11-28T19:34:46.335Z,1.24
2018-11-28T19:37:18.194Z,1.07
2018-11-28T19:39:53.942Z,1.03
2018-11-28T19:42:25.365Z,0.83
2018-11-28T19:44:58.421Z,1.01
2018-11-28T19:47:30.892Z,1.00
2018-11-28T19:50:26.982Z,0.98
2018-11-28T19:52:58.866Z,1.10
2018-11-28T19:55:39.103Z,1.26
2018-11-28T19:58:12.041Z,1.54
2018-11-28T20:00:46.690Z,1.78
2018-11-28T20:03:19.021Z,1.77
2018-11-28T20:05:59.948Z,1.18
2018-11-28T20:08:32.574Z,0.87
2018-11-28T20:11:07.171Z,0.76
2018-11-28T20:13:40.473Z,0.71
2018-11-28T20:18:49.023Z,0.55
2018-11-28T20:21:21.415Z,0.64
2018-11-28T20:23:53.848Z,0.79
2018-11-28T20:26:25.821Z,1.08
2018-11-28T20:29:07.923Z,1.64
2018-11-28T20:31:44.219Z,1.28
2018-11-28T20:34:16.533Z,0.88
2018-11-28T20:36:47.819Z,1.32
2018-11-28T20:39:20.313Z,1.05
2018-11-28T20:41:51.736Z,0.68
2018-11-28T20:44:23.768Z,0.50
2018-11-28T20:47:04.164Z,0.36
2018-11-28T20:49:32.916Z,0.33
2018-11-28T20:52:03.742Z,0.51
2018-11-28T20:54:35.027Z,0.89
2018-11-28T20:57:08.155Z,1.73
2018-11-28T20:59:44.857Z,0.99
2018-11-28T21:02:15.672Z,0.61
2018-11-28T21:04:46.771Z,0.87
2018-11-28T21:07:17.397Z,1.19
2018-11-28T21:09:54.079Z,1.11
2018-11-28T21:12:29.720Z,0.70
2018-11-28T21:15:01.673Z,0.39
2018-11-28T21:17:34.081Z,0.41
2018-11-28T21:20:13.287Z,0.58
2018-11-28T21:22:46.326Z,0.84
2018-11-28T21:25:23.792Z,0.91
2018-11-28T21:28:06.642Z,0.82
2018-11-28T21:30:38.236Z,0.53
2018-11-28T21:33:13.334Z,0.27
2018-11-28T21:35:48.798Z,0.13
2018-11-28T21:38:20.331Z,0.13
2018-11-28T21:40:53.165Z,0.18
2018-11-28T21:43:23.968Z,0.09
2018-11-28T21:45:57.528Z,-0.12
2018-11-28T21:48:31.422Z,-0.17
2018-11-28T21:51:03.889Z,-0.05
2018-11-28T21:53:34.961Z,0.10
2018-11-28T21:56:08.099Z,0.16
2018-11-28T21:58:40.878Z,0.08
2018-11-28T22:01:13.089Z,0.19
2018-11-28T22:03:43.474Z,0.20
2018-11-28T22:06:20.667Z,0.16
2018-11-28T22:08:53.428Z,-0.03
2018-11-28T22:11:29.824Z,-0.22
2018-11-28T22:14:01.872Z,-0.25
2018-11-28T22:16:32.865Z,-0.07
2018-11-28T22:19:06.550Z,-0.22
2018-11-28T22:21:40.050Z,-0.26
2018-11-28T22:24:14.266Z,-0.22
2018-11-28T22:26:47.823Z,-0.30
2018-11-28T22:29:23.772Z,-0.33
2018-11-28T22:31:54.478Z,-0.31
2018-11-28T22:34:25.162Z,-0.21
2018-11-28T22:36:57.989Z,-0.06
2018-11-28T22:39:32.835Z,0.21
2018-11-28T22:42:05.465Z,0.26
2018-11-28T22:44:36.999Z,0.23
2018-11-28T22:47:09.801Z,0.08
2018-11-28T22:49:43.202Z,0.06
2018-11-28T22:52:16.790Z,0.02
2018-11-28T22:54:48.215Z,-0.17
2018-11-28T22:57:20.612Z,-0.43
2018-11-28T22:59:54.867Z,-0.44
2018-11-28T23:02:39.467Z,-0.29
2018-11-28T23:05:14.112Z,-0.11
2018-11-28T23:07:45.362Z,0.48
2018-11-28T23:10:26.807Z,0.88
2018-11-28T23:12:59.165Z,1.24
2018-11-28T23:15:31.277Z,1.61
2018-11-28T23:18:07.890Z,1.96
2018-11-28T23:20:40.370Z,2.29
2018-11-28T23:23:14.187Z,2.30
2018-11-28T23:25:45.459Z,2.10
2018-11-28T23:28:18.315Z,1.35
2018-11-28T23:30:49.275Z,0.86
2018-11-28T23:33:20.576Z,0.63
2018-11-28T23:35:53.407Z,0.65
2018-11-28T23:38:24.284Z,1.09
2018-11-28T23:40:57.004Z,1.10
2018-11-28T23:43:27.503Z,1.03
2018-11-28T23:45:58.018Z,1.41
2018-11-28T23:48:28.859Z,1.80
2018-11-28T23:50:59.654Z,0.91
2018-11-28T23:53:33.014Z,0.46
2018-11-28T23:56:06.569Z,0.37
2018-11-28T23:58:40.323Z,0.86
